sensor_id;sensor_type;location;lat;lon;timestamp;pressure;altitude;pressure_sealevel;temperature;humidity
38253;BME280;24785;52.372;20.672;2022-07-23T00:07:37;100677.22;;;16.66;100.00
38253;BME280;24785;52.372;20.672;2022-07-23T00:17:38;100685.56;;;16.56;100.00
38253;BME280;24785;52.372;20.672;2022-07-23T00:27:39;100695.31;;;16.43;100.00
38253;BME280;24785;52.372;20.672;2022-07-23T00:37:40;100689.63;;;16.31;100.00
38253;BME280;24785;52.372;20.672;2022-07-23T00:47:41;100685.94;;;16.27;100.00
38253;BME280;24785;52.372;20.672;2022-07-23T00:57:42;100692.69;;;16.16;100.00
38253;BME280;24785;52.372;20.672;2022-07-23T01:07:43;100697.50;;;16.19;100.00
38253;BME280;24785;52.372;20.672;2022-07-23T01:17:44;100681.69;;;15.98;100.00
38253;BME280;24785;52.372;20.672;2022-07-23T01:27:45;100691.00;;;15.92;100.00
38253;BME280;24785;52.372;20.672;2022-07-23T01:37:46;100690.00;;;15.88;100.00
38253;BME280;24785;52.372;20.672;2022-07-23T01:47:48;100695.63;;;15.78;100.00
38253;BME280;24785;52.372;20.672;2022-07-23T01:57:49;100678.41;;;15.60;100.00
38253;BME280;24785;52.372;20.672;2022-07-23T02:07:50;100670.06;;;15.57;100.00
38253;BME280;24785;52.372;20.672;2022-07-23T02:17:51;100687.91;;;15.58;100.00
38253;BME280;24785;52.372;20.672;2022-07-23T02:27:51;100671.28;;;15.37;100.00
38253;BME280;24785;52.372;20.672;2022-07-23T02:37:52;100667.47;;;15.52;100.00
38253;BME280;24785;52.372;20.672;2022-07-23T02:47:53;100671.09;;;15.33;100.00
38253;BME280;24785;52.372;20.672;2022-07-23T02:57:53;100675.38;;;15.34;100.00
38253;BME280;24785;52.372;20.672;2022-07-23T03:07:54;100669.88;;;15.39;100.00
38253;BME280;24785;52.372;20.672;2022-07-23T03:17:55;100675.47;;;15.57;100.00
38253;BME280;24785;52.372;20.672;2022-07-23T03:27:56;100677.69;;;16.10;100.00
38253;BME280;24785;52.372;20.672;2022-07-23T03:37:57;100694.19;;;17.34;100.00
38253;BME280;24785;52.372;20.672;2022-07-23T03:47:57;100718.72;;;19.11;100.00
38253;BME280;24785;52.372;20.672;2022-07-23T03:57:58;100719.66;;;20.71;90.96
38253;BME280;24785;52.372;20.672;2022-07-23T04:07:59;100707.97;;;21.74;83.83
38253;BME280;24785;52.372;20.672;2022-07-23T04:18:00;100704.97;;;22.96;76.83
38253;BME280;24785;52.372;20.672;2022-07-23T04:28:01;100696.91;;;23.78;73.14
38253;BME280;24785;52.372;20.672;2022-07-23T04:38:02;100694.56;;;25.08;67.82
38253;BME280;24785;52.372;20.672;2022-07-23T04:48:03;100694.97;;;26.35;63.19
38253;BME280;24785;52.372;20.672;2022-07-23T04:58:04;100697.81;;;26.42;61.67
38253;BME280;24785;52.372;20.672;2022-07-23T05:08:05;100703.63;;;26.37;61.77
38253;BME280;24785;52.372;20.672;2022-07-23T05:18:06;100702.28;;;24.83;68.45
38253;BME280;24785;52.372;20.672;2022-07-23T05:28:07;100693.53;;;25.16;68.86
38253;BME280;24785;52.372;20.672;2022-07-23T05:38:08;100684.66;;;25.03;67.21
38253;BME280;24785;52.372;20.672;2022-07-23T05:48:08;100678.94;;;25.35;66.86
38253;BME280;24785;52.372;20.672;2022-07-23T05:58:09;100692.13;;;25.26;68.59
38253;BME280;24785;52.372;20.672;2022-07-23T06:08:10;100684.50;;;25.16;67.80
38253;BME280;24785;52.372;20.672;2022-07-23T06:18:11;100675.94;;;25.43;65.32
38253;BME280;24785;52.372;20.672;2022-07-23T06:28:12;100682.22;;;25.93;63.50
38253;BME280;24785;52.372;20.672;2022-07-23T06:38:13;100675.41;;;26.10;61.74
38253;BME280;24785;52.372;20.672;2022-07-23T06:48:14;100670.75;;;26.14;60.52
38253;BME280;24785;52.372;20.672;2022-07-23T06:58:14;100671.72;;;26.29;56.80
38253;BME280;24785;52.372;20.672;2022-07-23T07:08:16;100656.50;;;26.69;53.54
38253;BME280;24785;52.372;20.672;2022-07-23T07:18:17;100650.75;;;26.84;54.10
38253;BME280;24785;52.372;20.672;2022-07-23T07:28:17;100642.47;;;27.18;52.65
38253;BME280;24785;52.372;20.672;2022-07-23T07:38:18;100644.69;;;27.02;52.96
38253;BME280;24785;52.372;20.672;2022-07-23T07:48:19;100651.66;;;27.40;51.90
38253;BME280;24785;52.372;20.672;2022-07-23T07:58:20;100648.03;;;27.76;50.59
38253;BME280;24785;52.372;20.672;2022-07-23T08:08:21;100651.72;;;28.02;50.13
38253;BME280;24785;52.372;20.672;2022-07-23T08:18:21;100657.88;;;27.81;51.71
38253;BME280;24785;52.372;20.672;2022-07-23T08:28:22;100651.88;;;27.61;51.06
38253;BME280;24785;52.372;20.672;2022-07-23T08:38:23;100637.22;;;28.22;49.36
38253;BME280;24785;52.372;20.672;2022-07-23T08:48:27;100633.44;;;28.56;48.79
38253;BME280;24785;52.372;20.672;2022-07-23T08:58:29;100625.59;;;28.72;47.66
38253;BME280;24785;52.372;20.672;2022-07-23T09:18:51;100606.28;;;28.82;41.81
38253;BME280;24785;52.372;20.672;2022-07-23T09:38:55;100594.91;;;29.48;47.03
38253;BME280;24785;52.372;20.672;2022-07-23T09:48:56;100600.34;;;29.69;46.88
38253;BME280;24785;52.372;20.672;2022-07-23T09:58:57;100577.44;;;29.76;46.75
38253;BME280;24785;52.372;20.672;2022-07-23T10:09:16;100580.50;;;30.10;45.43
38253;BME280;24785;52.372;20.672;2022-07-23T10:19:18;100566.88;;;30.44;42.41
38253;BME280;24785;52.372;20.672;2022-07-23T10:39:42;100567.66;;;30.45;43.96
38253;BME280;24785;52.372;20.672;2022-07-23T10:49:43;100562.44;;;31.09;43.09
38253;BME280;24785;52.372;20.672;2022-07-23T11:20:34;100540.47;;;31.74;37.29
38253;BME280;24785;52.372;20.672;2022-07-23T11:40:35;100538.25;;;32.73;37.02
38253;BME280;24785;52.372;20.672;2022-07-23T11:50:36;100505.50;;;32.88;34.48
38253;BME280;24785;52.372;20.672;2022-07-23T12:00:40;100506.06;;;31.98;36.43
38253;BME280;24785;52.372;20.672;2022-07-23T12:10:44;100498.47;;;31.41;39.40
38253;BME280;24785;52.372;20.672;2022-07-23T12:20:48;100485.59;;;32.69;36.70
38253;BME280;24785;52.372;20.672;2022-07-23T12:30:51;100469.50;;;32.84;36.52
38253;BME280;24785;52.372;20.672;2022-07-23T12:40:54;100453.00;;;34.12;34.57
38253;BME280;24785;52.372;20.672;2022-07-23T13:01:00;100426.97;;;34.02;32.88
38253;BME280;24785;52.372;20.672;2022-07-23T13:11:01;100433.06;;;33.02;36.37
38253;BME280;24785;52.372;20.672;2022-07-23T13:21:03;100439.06;;;31.12;36.36
38253;BME280;24785;52.372;20.672;2022-07-23T13:31:04;100438.94;;;30.40;37.85
38253;BME280;24785;52.372;20.672;2022-07-23T13:41:05;100451.88;;;29.95;39.22
38253;BME280;24785;52.372;20.672;2022-07-23T13:51:07;100444.16;;;29.65;39.96
38253;BME280;24785;52.372;20.672;2022-07-23T14:01:08;100439.63;;;29.08;42.11
38253;BME280;24785;52.372;20.672;2022-07-23T14:11:09;100416.06;;;28.50;41.60
38253;BME280;24785;52.372;20.672;2022-07-23T14:21:10;100496.78;;;28.44;42.35
38253;BME280;24785;52.372;20.672;2022-07-23T14:31:11;100571.25;;;23.89;73.91
38253;BME280;24785;52.372;20.672;2022-07-23T14:41:11;100648.88;;;20.30;100.00
38253;BME280;24785;52.372;20.672;2022-07-23T14:51:12;100702.81;;;19.77;100.00
38253;BME280;24785;52.372;20.672;2022-07-23T15:01:13;100728.78;;;19.66;100.00
38253;BME280;24785;52.372;20.672;2022-07-23T15:11:14;100740.13;;;19.68;100.00
38253;BME280;24785;52.372;20.672;2022-07-23T15:21:15;100749.25;;;19.72;100.00
38253;BME280;24785;52.372;20.672;2022-07-23T15:31:16;100723.91;;;19.80;100.00
38253;BME280;24785;52.372;20.672;2022-07-23T15:41:17;100685.19;;;19.84;100.00
38253;BME280;24785;52.372;20.672;2022-07-23T15:51:18;100657.91;;;19.71;100.00
38253;BME280;24785;52.372;20.672;2022-07-23T16:01:18;100666.34;;;19.78;100.00
38253;BME280;24785;52.372;20.672;2022-07-23T16:11:19;100638.63;;;19.64;100.00
38253;BME280;24785;52.372;20.672;2022-07-23T16:21:20;100565.69;;;19.66;100.00
38253;BME280;24785;52.372;20.672;2022-07-23T16:31:21;100512.97;;;19.59;100.00
38253;BME280;24785;52.372;20.672;2022-07-23T16:41:22;100430.09;;;19.65;100.00
38253;BME280;24785;52.372;20.672;2022-07-23T16:51:23;100410.03;;;19.57;100.00
38253;BME280;24785;52.372;20.672;2022-07-23T17:01:24;100418.88;;;19.45;100.00
38253;BME280;24785;52.372;20.672;2022-07-23T17:11:25;100438.25;;;19.44;100.00
38253;BME280;24785;52.372;20.672;2022-07-23T17:21:26;100467.47;;;19.68;100.00
38253;BME280;24785;52.372;20.672;2022-07-23T17:31:27;100479.53;;;19.79;100.00
38253;BME280;24785;52.372;20.672;2022-07-23T17:41:27;100478.44;;;20.25;100.00
38253;BME280;24785;52.372;20.672;2022-07-23T17:51:28;100485.28;;;19.98;100.00
38253;BME280;24785;52.372;20.672;2022-07-23T18:01:29;100473.31;;;19.78;100.00
38253;BME280;24785;52.372;20.672;2022-07-23T18:11:30;100462.16;;;19.30;100.00
38253;BME280;24785;52.372;20.672;2022-07-23T18:21:32;100461.41;;;19.21;100.00
38253;BME280;24785;52.372;20.672;2022-07-23T18:31:33;100448.09;;;19.28;100.00
38253;BME280;24785;52.372;20.672;2022-07-23T18:41:34;100471.75;;;19.27;100.00
38253;BME280;24785;52.372;20.672;2022-07-23T18:51:36;100470.63;;;19.07;100.00
38253;BME280;24785;52.372;20.672;2022-07-23T19:01:36;100476.47;;;19.18;100.00
38253;BME280;24785;52.372;20.672;2022-07-23T19:11:38;100466.03;;;18.99;100.00
38253;BME280;24785;52.372;20.672;2022-07-23T19:21:39;100473.09;;;18.92;100.00
38253;BME280;24785;52.372;20.672;2022-07-23T19:31:40;100459.38;;;18.88;100.00
38253;BME280;24785;52.372;20.672;2022-07-23T19:41:41;100471.69;;;18.85;100.00
38253;BME280;24785;52.372;20.672;2022-07-23T19:51:41;100474.63;;;18.72;100.00
38253;BME280;24785;52.372;20.672;2022-07-23T20:01:43;100468.81;;;18.82;100.00
38253;BME280;24785;52.372;20.672;2022-07-23T20:11:44;100494.94;;;18.66;100.00
38253;BME280;24785;52.372;20.672;2022-07-23T20:21:45;100533.22;;;18.73;100.00
38253;BME280;24785;52.372;20.672;2022-07-23T20:31:48;100547.41;;;18.78;100.00
38253;BME280;24785;52.372;20.672;2022-07-23T20:41:49;100548.53;;;18.77;100.00
38253;BME280;24785;52.372;20.672;2022-07-23T20:51:50;100566.13;;;18.71;100.00
38253;BME280;24785;52.372;20.672;2022-07-23T21:01:51;100564.03;;;18.77;100.00
38253;BME280;24785;52.372;20.672;2022-07-23T21:11:52;100546.28;;;18.79;100.00
38253;BME280;24785;52.372;20.672;2022-07-23T21:21:52;100553.59;;;18.87;100.00
38253;BME280;24785;52.372;20.672;2022-07-23T21:31:53;100554.25;;;18.93;100.00
38253;BME280;24785;52.372;20.672;2022-07-23T21:41:54;100562.22;;;18.98;100.00
38253;BME280;24785;52.372;20.672;2022-07-23T21:51:57;100569.88;;;18.96;100.00
38253;BME280;24785;52.372;20.672;2022-07-23T22:01:58;100563.66;;;18.96;100.00
38253;BME280;24785;52.372;20.672;2022-07-23T22:12:01;100566.69;;;18.94;100.00
38253;BME280;24785;52.372;20.672;2022-07-23T22:22:02;100557.25;;;18.92;100.00
38253;BME280;24785;52.372;20.672;2022-07-23T22:32:03;100566.06;;;18.88;100.00
38253;BME280;24785;52.372;20.672;2022-07-23T22:42:04;100571.00;;;18.86;100.00
38253;BME280;24785;52.372;20.672;2022-07-23T22:52:05;100556.53;;;19.12;100.00
38253;BME280;24785;52.372;20.672;2022-07-23T23:02:06;100569.50;;;19.06;100.00
38253;BME280;24785;52.372;20.672;2022-07-23T23:12:07;100572.69;;;19.08;100.00
38253;BME280;24785;52.372;20.672;2022-07-23T23:22:08;100553.06;;;19.03;100.00
38253;BME280;24785;52.372;20.672;2022-07-23T23:32:09;100556.63;;;19.24;100.00
38253;BME280;24785;52.372;20.672;2022-07-23T23:42:10;100570.63;;;19.35;100.00
38253;BME280;24785;52.372;20.672;2022-07-23T23:52:11;100572.09;;;19.32;100.00
